sensor_id;sensor_type;location;lat;lon;timestamp;P1;durP1;ratioP1;P2;durP2;ratioP2
34928;SDS011;21133;48.048;7.724;2023-04-19T00:01:18;2.80;;;2.60;;
34928;SDS011;21133;48.048;7.724;2023-04-19T00:03:44;3.47;;;3.37;;
34928;SDS011;21133;48.048;7.724;2023-04-19T00:06:10;3.63;;;3.53;;
34928;SDS011;21133;48.048;7.724;2023-04-19T00:08:39;11.53;;;3.90;;
34928;SDS011;21133;48.048;7.724;2023-04-19T00:11:06;4.90;;;3.27;;
34928;SDS011;21133;48.048;7.724;2023-04-19T00:13:32;3.10;;;3.00;;
34928;SDS011;21133;48.048;7.724;2023-04-19T00:15:58;2.87;;;2.80;;
34928;SDS011;21133;48.048;7.724;2023-04-19T00:18:24;2.87;;;2.87;;
34928;SDS011;21133;48.048;7.724;2023-04-19T00:20:50;4.10;;;3.90;;
34928;SDS011;21133;48.048;7.724;2023-04-19T00:23:16;3.77;;;3.67;;
34928;SDS011;21133;48.048;7.724;2023-04-19T00:25:42;3.97;;;3.77;;
34928;SDS011;21133;48.048;7.724;2023-04-19T00:28:08;3.10;;;3.07;;
34928;SDS011;21133;48.048;7.724;2023-04-19T00:30:34;3.90;;;3.80;;
34928;SDS011;21133;48.048;7.724;2023-04-19T00:33:00;4.37;;;4.00;;
34928;SDS011;21133;48.048;7.724;2023-04-19T00:35:26;3.33;;;3.23;;
34928;SDS011;21133;48.048;7.724;2023-04-19T00:37:52;3.80;;;3.43;;
34928;SDS011;21133;48.048;7.724;2023-04-19T00:40:18;3.50;;;3.40;;
34928;SDS011;21133;48.048;7.724;2023-04-19T00:42:44;4.63;;;4.43;;
34928;SDS011;21133;48.048;7.724;2023-04-19T00:45:10;4.43;;;4.20;;
34928;SDS011;21133;48.048;7.724;2023-04-19T00:47:36;5.07;;;4.60;;
34928;SDS011;21133;48.048;7.724;2023-04-19T00:50:02;4.27;;;4.07;;
34928;SDS011;21133;48.048;7.724;2023-04-19T00:52:28;4.53;;;4.23;;
34928;SDS011;21133;48.048;7.724;2023-04-19T00:54:55;4.73;;;4.53;;
34928;SDS011;21133;48.048;7.724;2023-04-19T00:57:23;4.27;;;3.97;;
34928;SDS011;21133;48.048;7.724;2023-04-19T00:59:49;4.50;;;4.30;;
34928;SDS011;21133;48.048;7.724;2023-04-19T01:02:16;6.37;;;4.80;;
34928;SDS011;21133;48.048;7.724;2023-04-19T01:04:42;4.17;;;4.07;;
34928;SDS011;21133;48.048;7.724;2023-04-19T01:07:08;4.10;;;4.00;;
34928;SDS011;21133;48.048;7.724;2023-04-19T01:09:34;5.10;;;4.80;;
34928;SDS011;21133;48.048;7.724;2023-04-19T01:12:04;4.20;;;3.90;;
34928;SDS011;21133;48.048;7.724;2023-04-19T01:14:30;4.60;;;4.40;;
34928;SDS011;21133;48.048;7.724;2023-04-19T01:16:56;4.00;;;3.90;;
34928;SDS011;21133;48.048;7.724;2023-04-19T01:19:22;4.33;;;4.13;;
34928;SDS011;21133;48.048;7.724;2023-04-19T01:21:48;4.27;;;4.00;;
34928;SDS011;21133;48.048;7.724;2023-04-19T01:24:16;4.77;;;4.47;;
34928;SDS011;21133;48.048;7.724;2023-04-19T01:26:42;5.00;;;4.60;;
34928;SDS011;21133;48.048;7.724;2023-04-19T01:29:08;4.20;;;4.00;;
34928;SDS011;21133;48.048;7.724;2023-04-19T01:31:34;4.53;;;4.13;;
34928;SDS011;21133;48.048;7.724;2023-04-19T01:34:00;3.93;;;3.73;;
34928;SDS011;21133;48.048;7.724;2023-04-19T01:36:26;4.53;;;4.23;;
34928;SDS011;21133;48.048;7.724;2023-04-19T01:38:52;4.63;;;4.40;;
34928;SDS011;21133;48.048;7.724;2023-04-19T01:41:18;3.80;;;3.50;;
34928;SDS011;21133;48.048;7.724;2023-04-19T01:43:45;4.90;;;4.60;;
34928;SDS011;21133;48.048;7.724;2023-04-19T01:46:11;4.33;;;4.17;;
34928;SDS011;21133;48.048;7.724;2023-04-19T01:48:37;4.03;;;3.83;;
34928;SDS011;21133;48.048;7.724;2023-04-19T01:51:03;3.83;;;3.73;;
34928;SDS011;21133;48.048;7.724;2023-04-19T01:53:29;4.90;;;4.70;;
34928;SDS011;21133;48.048;7.724;2023-04-19T01:55:55;3.90;;;3.80;;
34928;SDS011;21133;48.048;7.724;2023-04-19T01:58:21;5.73;;;5.20;;
34928;SDS011;21133;48.048;7.724;2023-04-19T02:00:47;3.97;;;3.77;;
34928;SDS011;21133;48.048;7.724;2023-04-19T02:03:13;4.53;;;4.37;;
34928;SDS011;21133;48.048;7.724;2023-04-19T02:05:39;4.97;;;4.47;;
34928;SDS011;21133;48.048;7.724;2023-04-19T02:08:05;4.07;;;3.80;;
34928;SDS011;21133;48.048;7.724;2023-04-19T02:10:31;4.70;;;4.30;;
34928;SDS011;21133;48.048;7.724;2023-04-19T02:12:57;4.87;;;4.50;;
34928;SDS011;21133;48.048;7.724;2023-04-19T02:15:23;4.60;;;4.40;;
34928;SDS011;21133;48.048;7.724;2023-04-19T02:17:49;5.23;;;4.87;;
34928;SDS011;21133;48.048;7.724;2023-04-19T02:20:15;4.37;;;4.23;;
34928;SDS011;21133;48.048;7.724;2023-04-19T02:22:41;3.90;;;3.80;;
34928;SDS011;21133;48.048;7.724;2023-04-19T02:25:07;4.33;;;4.13;;
34928;SDS011;21133;48.048;7.724;2023-04-19T02:27:33;3.33;;;3.13;;
34928;SDS011;21133;48.048;7.724;2023-04-19T02:29:59;3.83;;;3.70;;
34928;SDS011;21133;48.048;7.724;2023-04-19T02:32:25;5.03;;;4.83;;
34928;SDS011;21133;48.048;7.724;2023-04-19T02:34:51;4.30;;;4.10;;
34928;SDS011;21133;48.048;7.724;2023-04-19T02:37:17;5.23;;;4.83;;
34928;SDS011;21133;48.048;7.724;2023-04-19T02:39:43;5.07;;;4.63;;
34928;SDS011;21133;48.048;7.724;2023-04-19T02:42:10;8.13;;;4.60;;
34928;SDS011;21133;48.048;7.724;2023-04-19T02:44:36;4.53;;;4.33;;
34928;SDS011;21133;48.048;7.724;2023-04-19T02:47:02;4.57;;;4.37;;
34928;SDS011;21133;48.048;7.724;2023-04-19T02:49:29;4.90;;;4.53;;
34928;SDS011;21133;48.048;7.724;2023-04-19T02:52:00;4.47;;;4.10;;
34928;SDS011;21133;48.048;7.724;2023-04-19T02:54:26;4.70;;;4.40;;
34928;SDS011;21133;48.048;7.724;2023-04-19T02:56:52;4.13;;;4.03;;
34928;SDS011;21133;48.048;7.724;2023-04-19T02:59:18;3.80;;;3.70;;
34928;SDS011;21133;48.048;7.724;2023-04-19T03:01:44;5.23;;;5.00;;
34928;SDS011;21133;48.048;7.724;2023-04-19T03:04:10;4.17;;;3.87;;
34928;SDS011;21133;48.048;7.724;2023-04-19T03:06:36;5.33;;;5.03;;
34928;SDS011;21133;48.048;7.724;2023-04-19T03:09:02;5.17;;;4.77;;
34928;SDS011;21133;48.048;7.724;2023-04-19T03:11:28;5.17;;;4.80;;
34928;SDS011;21133;48.048;7.724;2023-04-19T03:13:54;4.83;;;4.53;;
34928;SDS011;21133;48.048;7.724;2023-04-19T03:16:20;5.10;;;4.90;;
34928;SDS011;21133;48.048;7.724;2023-04-19T03:18:46;5.00;;;4.80;;
34928;SDS011;21133;48.048;7.724;2023-04-19T03:21:12;4.67;;;4.47;;
34928;SDS011;21133;48.048;7.724;2023-04-19T03:23:38;4.67;;;4.37;;
34928;SDS011;21133;48.048;7.724;2023-04-19T03:29:07;4.27;;;4.07;;
34928;SDS011;21133;48.048;7.724;2023-04-19T03:31:33;4.23;;;4.13;;
34928;SDS011;21133;48.048;7.724;2023-04-19T03:33:59;4.70;;;4.40;;
34928;SDS011;21133;48.048;7.724;2023-04-19T03:36:25;4.80;;;4.57;;
34928;SDS011;21133;48.048;7.724;2023-04-19T03:38:51;5.60;;;5.07;;
34928;SDS011;21133;48.048;7.724;2023-04-19T03:41:22;4.50;;;4.40;;
34928;SDS011;21133;48.048;7.724;2023-04-19T03:43:48;6.20;;;4.80;;
34928;SDS011;21133;48.048;7.724;2023-04-19T03:46:14;5.10;;;4.90;;
34928;SDS011;21133;48.048;7.724;2023-04-19T03:48:40;4.20;;;4.10;;
34928;SDS011;21133;48.048;7.724;2023-04-19T03:51:06;3.83;;;3.73;;
34928;SDS011;21133;48.048;7.724;2023-04-19T03:53:32;4.53;;;4.33;;
34928;SDS011;21133;48.048;7.724;2023-04-19T03:55:58;4.97;;;4.80;;
34928;SDS011;21133;48.048;7.724;2023-04-19T03:58:24;5.53;;;5.23;;
34928;SDS011;21133;48.048;7.724;2023-04-19T04:00:50;4.63;;;4.43;;
34928;SDS011;21133;48.048;7.724;2023-04-19T04:03:16;4.17;;;4.07;;
34928;SDS011;21133;48.048;7.724;2023-04-19T04:05:42;3.90;;;3.80;;
34928;SDS011;21133;48.048;7.724;2023-04-19T04:08:07;4.53;;;4.40;;
34928;SDS011;21133;48.048;7.724;2023-04-19T04:10:34;4.80;;;4.40;;
34928;SDS011;21133;48.048;7.724;2023-04-19T04:13:00;4.60;;;4.37;;
34928;SDS011;21133;48.048;7.724;2023-04-19T04:15:25;5.80;;;5.30;;
34928;SDS011;21133;48.048;7.724;2023-04-19T04:17:51;6.10;;;5.80;;
34928;SDS011;21133;48.048;7.724;2023-04-19T04:20:17;5.20;;;5.00;;
34928;SDS011;21133;48.048;7.724;2023-04-19T04:22:44;5.20;;;4.90;;
34928;SDS011;21133;48.048;7.724;2023-04-19T04:25:11;5.40;;;4.70;;
34928;SDS011;21133;48.048;7.724;2023-04-19T04:27:37;4.90;;;4.70;;
34928;SDS011;21133;48.048;7.724;2023-04-19T04:30:04;5.43;;;5.03;;
34928;SDS011;21133;48.048;7.724;2023-04-19T04:32:30;4.73;;;4.30;;
34928;SDS011;21133;48.048;7.724;2023-04-19T04:35:00;4.90;;;4.80;;
34928;SDS011;21133;48.048;7.724;2023-04-19T04:37:26;5.13;;;4.87;;
34928;SDS011;21133;48.048;7.724;2023-04-19T04:39:52;5.80;;;5.40;;
34928;SDS011;21133;48.048;7.724;2023-04-19T04:42:17;5.47;;;5.17;;
34928;SDS011;21133;48.048;7.724;2023-04-19T04:44:45;5.93;;;5.43;;
34928;SDS011;21133;48.048;7.724;2023-04-19T04:47:11;7.17;;;6.57;;
34928;SDS011;21133;48.048;7.724;2023-04-19T04:49:38;6.40;;;5.80;;
34928;SDS011;21133;48.048;7.724;2023-04-19T04:52:04;5.43;;;5.20;;
34928;SDS011;21133;48.048;7.724;2023-04-19T04:54:30;5.17;;;4.87;;
34928;SDS011;21133;48.048;7.724;2023-04-19T04:56:57;6.30;;;5.60;;
34928;SDS011;21133;48.048;7.724;2023-04-19T04:59:23;6.10;;;5.70;;
34928;SDS011;21133;48.048;7.724;2023-04-19T05:01:49;8.50;;;7.87;;
34928;SDS011;21133;48.048;7.724;2023-04-19T05:04:15;5.90;;;5.43;;
34928;SDS011;21133;48.048;7.724;2023-04-19T05:06:41;5.77;;;5.47;;
34928;SDS011;21133;48.048;7.724;2023-04-19T05:09:08;6.83;;;6.20;;
34928;SDS011;21133;48.048;7.724;2023-04-19T05:11:34;5.27;;;4.97;;
34928;SDS011;21133;48.048;7.724;2023-04-19T05:14:00;5.00;;;4.80;;
34928;SDS011;21133;48.048;7.724;2023-04-19T05:16:26;6.73;;;5.73;;
34928;SDS011;21133;48.048;7.724;2023-04-19T05:18:52;7.40;;;6.73;;
34928;SDS011;21133;48.048;7.724;2023-04-19T05:21:18;6.03;;;5.50;;
34928;SDS011;21133;48.048;7.724;2023-04-19T05:23:44;7.13;;;6.57;;
34928;SDS011;21133;48.048;7.724;2023-04-19T05:26:10;6.77;;;6.27;;
34928;SDS011;21133;48.048;7.724;2023-04-19T05:28:39;5.03;;;4.83;;
34928;SDS011;21133;48.048;7.724;2023-04-19T05:31:05;6.27;;;5.87;;
34928;SDS011;21133;48.048;7.724;2023-04-19T05:33:31;7.00;;;6.47;;
34928;SDS011;21133;48.048;7.724;2023-04-19T05:35:57;5.20;;;4.90;;
34928;SDS011;21133;48.048;7.724;2023-04-19T05:38:23;4.90;;;4.63;;
34928;SDS011;21133;48.048;7.724;2023-04-19T05:40:49;5.67;;;5.47;;
34928;SDS011;21133;48.048;7.724;2023-04-19T05:43:15;5.30;;;5.00;;
34928;SDS011;21133;48.048;7.724;2023-04-19T05:45:41;5.53;;;5.23;;
34928;SDS011;21133;48.048;7.724;2023-04-19T05:48:07;5.63;;;5.37;;
34928;SDS011;21133;48.048;7.724;2023-04-19T05:50:33;5.33;;;5.00;;
34928;SDS011;21133;48.048;7.724;2023-04-19T05:53:00;4.93;;;4.70;;
34928;SDS011;21133;48.048;7.724;2023-04-19T05:55:26;4.87;;;4.73;;
34928;SDS011;21133;48.048;7.724;2023-04-19T05:57:52;7.50;;;5.90;;
34928;SDS011;21133;48.048;7.724;2023-04-19T06:00:18;6.57;;;5.97;;
34928;SDS011;21133;48.048;7.724;2023-04-19T06:02:44;6.07;;;5.70;;
34928;SDS011;21133;48.048;7.724;2023-04-19T06:05:10;7.60;;;5.03;;
34928;SDS011;21133;48.048;7.724;2023-04-19T06:07:36;5.57;;;5.37;;
34928;SDS011;21133;48.048;7.724;2023-04-19T06:10:03;5.00;;;4.80;;
34928;SDS011;21133;48.048;7.724;2023-04-19T06:12:29;7.73;;;6.07;;
34928;SDS011;21133;48.048;7.724;2023-04-19T06:14:55;5.73;;;5.40;;
34928;SDS011;21133;48.048;7.724;2023-04-19T06:17:21;5.30;;;5.00;;
34928;SDS011;21133;48.048;7.724;2023-04-19T06:19:49;5.67;;;5.27;;
34928;SDS011;21133;48.048;7.724;2023-04-19T06:22:15;5.27;;;4.93;;
34928;SDS011;21133;48.048;7.724;2023-04-19T06:24:43;5.33;;;5.03;;
34928;SDS011;21133;48.048;7.724;2023-04-19T06:27:10;6.97;;;6.47;;
34928;SDS011;21133;48.048;7.724;2023-04-19T06:29:35;5.77;;;5.10;;
34928;SDS011;21133;48.048;7.724;2023-04-19T06:32:01;5.57;;;5.23;;
34928;SDS011;21133;48.048;7.724;2023-04-19T06:34:27;5.43;;;5.23;;
34928;SDS011;21133;48.048;7.724;2023-04-19T06:36:53;14.93;;;5.33;;
34928;SDS011;21133;48.048;7.724;2023-04-19T06:39:19;6.03;;;5.53;;
34928;SDS011;21133;48.048;7.724;2023-04-19T06:41:45;5.30;;;5.00;;
34928;SDS011;21133;48.048;7.724;2023-04-19T06:44:12;6.20;;;5.70;;
34928;SDS011;21133;48.048;7.724;2023-04-19T06:46:38;5.97;;;5.57;;
34928;SDS011;21133;48.048;7.724;2023-04-19T06:49:04;6.67;;;6.10;;
34928;SDS011;21133;48.048;7.724;2023-04-19T06:51:30;7.93;;;7.23;;
34928;SDS011;21133;48.048;7.724;2023-04-19T06:53:56;10.03;;;7.83;;
34928;SDS011;21133;48.048;7.724;2023-04-19T06:59:09;14.23;;;7.30;;
34928;SDS011;21133;48.048;7.724;2023-04-19T07:01:35;8.53;;;7.73;;
34928;SDS011;21133;48.048;7.724;2023-04-19T07:04:01;9.60;;;8.63;;
34928;SDS011;21133;48.048;7.724;2023-04-19T07:06:27;8.10;;;7.33;;
34928;SDS011;21133;48.048;7.724;2023-04-19T07:08:53;10.90;;;7.67;;
34928;SDS011;21133;48.048;7.724;2023-04-19T07:11:19;7.77;;;7.17;;
34928;SDS011;21133;48.048;7.724;2023-04-19T07:13:45;7.13;;;6.60;;
34928;SDS011;21133;48.048;7.724;2023-04-19T07:16:11;7.73;;;7.17;;
34928;SDS011;21133;48.048;7.724;2023-04-19T07:18:38;7.40;;;6.70;;
34928;SDS011;21133;48.048;7.724;2023-04-19T07:21:04;7.03;;;6.50;;
34928;SDS011;21133;48.048;7.724;2023-04-19T07:23:30;6.93;;;6.43;;
34928;SDS011;21133;48.048;7.724;2023-04-19T07:25:56;6.93;;;6.33;;
34928;SDS011;21133;48.048;7.724;2023-04-19T07:28:22;8.83;;;7.77;;
34928;SDS011;21133;48.048;7.724;2023-04-19T07:30:48;7.40;;;6.70;;
34928;SDS011;21133;48.048;7.724;2023-04-19T07:33:14;8.63;;;6.57;;
34928;SDS011;21133;48.048;7.724;2023-04-19T07:35:40;7.33;;;6.50;;
34928;SDS011;21133;48.048;7.724;2023-04-19T07:38:06;7.70;;;7.10;;
34928;SDS011;21133;48.048;7.724;2023-04-19T07:40:32;7.00;;;6.50;;
34928;SDS011;21133;48.048;7.724;2023-04-19T07:42:58;6.73;;;6.23;;
34928;SDS011;21133;48.048;7.724;2023-04-19T07:45:24;7.60;;;6.90;;
34928;SDS011;21133;48.048;7.724;2023-04-19T07:47:50;8.30;;;7.47;;
34928;SDS011;21133;48.048;7.724;2023-04-19T07:50:16;7.50;;;7.00;;
34928;SDS011;21133;48.048;7.724;2023-04-19T07:52:42;7.27;;;6.63;;
34928;SDS011;21133;48.048;7.724;2023-04-19T07:55:08;7.73;;;6.93;;
34928;SDS011;21133;48.048;7.724;2023-04-19T07:57:34;8.83;;;7.93;;
34928;SDS011;21133;48.048;7.724;2023-04-19T08:00:00;7.90;;;7.20;;
34928;SDS011;21133;48.048;7.724;2023-04-19T08:02:26;7.43;;;6.83;;
34928;SDS011;21133;48.048;7.724;2023-04-19T08:04:52;9.10;;;8.17;;
34928;SDS011;21133;48.048;7.724;2023-04-19T08:07:18;7.80;;;7.10;;
34928;SDS011;21133;48.048;7.724;2023-04-19T08:09:45;7.20;;;6.57;;
34928;SDS011;21133;48.048;7.724;2023-04-19T08:12:11;8.43;;;7.63;;
34928;SDS011;21133;48.048;7.724;2023-04-19T08:14:37;9.00;;;8.13;;
34928;SDS011;21133;48.048;7.724;2023-04-19T08:17:05;9.30;;;7.70;;
34928;SDS011;21133;48.048;7.724;2023-04-19T08:19:31;8.53;;;7.73;;
34928;SDS011;21133;48.048;7.724;2023-04-19T08:21:57;8.00;;;7.27;;
34928;SDS011;21133;48.048;7.724;2023-04-19T08:24:23;8.67;;;7.77;;
34928;SDS011;21133;48.048;7.724;2023-04-19T08:26:49;8.30;;;7.60;;
34928;SDS011;21133;48.048;7.724;2023-04-19T08:29:19;8.30;;;7.47;;
34928;SDS011;21133;48.048;7.724;2023-04-19T08:31:46;7.60;;;6.93;;
34928;SDS011;21133;48.048;7.724;2023-04-19T08:34:12;10.70;;;7.53;;
34928;SDS011;21133;48.048;7.724;2023-04-19T08:36:38;10.57;;;6.13;;
34928;SDS011;21133;48.048;7.724;2023-04-19T08:39:04;6.27;;;5.90;;
34928;SDS011;21133;48.048;7.724;2023-04-19T08:41:30;10.13;;;6.40;;
34928;SDS011;21133;48.048;7.724;2023-04-19T08:43:56;6.67;;;6.27;;
34928;SDS011;21133;48.048;7.724;2023-04-19T08:46:23;7.27;;;6.57;;
34928;SDS011;21133;48.048;7.724;2023-04-19T08:48:50;7.83;;;7.03;;
34928;SDS011;21133;48.048;7.724;2023-04-19T08:51:16;7.73;;;7.03;;
34928;SDS011;21133;48.048;7.724;2023-04-19T08:53:43;8.30;;;7.70;;
34928;SDS011;21133;48.048;7.724;2023-04-19T08:56:10;7.37;;;6.50;;
34928;SDS011;21133;48.048;7.724;2023-04-19T08:58:36;6.97;;;6.40;;
34928;SDS011;21133;48.048;7.724;2023-04-19T09:01:06;6.23;;;5.90;;
34928;SDS011;21133;48.048;7.724;2023-04-19T09:03:32;6.47;;;5.80;;
34928;SDS011;21133;48.048;7.724;2023-04-19T09:05:59;7.07;;;6.47;;
34928;SDS011;21133;48.048;7.724;2023-04-19T09:08:26;7.63;;;6.87;;
34928;SDS011;21133;48.048;7.724;2023-04-19T09:11:00;6.87;;;6.37;;
34928;SDS011;21133;48.048;7.724;2023-04-19T09:13:26;6.77;;;6.17;;
34928;SDS011;21133;48.048;7.724;2023-04-19T09:15:53;7.33;;;6.80;;
34928;SDS011;21133;48.048;7.724;2023-04-19T09:18:21;10.13;;;7.70;;
34928;SDS011;21133;48.048;7.724;2023-04-19T09:20:48;8.03;;;7.27;;
34928;SDS011;21133;48.048;7.724;2023-04-19T09:23:15;8.00;;;7.23;;
34928;SDS011;21133;48.048;7.724;2023-04-19T09:28:17;8.00;;;6.70;;
34928;SDS011;21133;48.048;7.724;2023-04-19T09:30:43;8.13;;;7.43;;
34928;SDS011;21133;48.048;7.724;2023-04-19T09:33:09;8.17;;;7.57;;
34928;SDS011;21133;48.048;7.724;2023-04-19T09:35:42;8.53;;;7.43;;
34928;SDS011;21133;48.048;7.724;2023-04-19T09:38:08;6.60;;;6.17;;
34928;SDS011;21133;48.048;7.724;2023-04-19T09:40:34;6.40;;;6.03;;
34928;SDS011;21133;48.048;7.724;2023-04-19T09:43:01;7.63;;;7.03;;
34928;SDS011;21133;48.048;7.724;2023-04-19T09:45:35;6.07;;;5.60;;
34928;SDS011;21133;48.048;7.724;2023-04-19T09:48:04;5.50;;;5.10;;
34928;SDS011;21133;48.048;7.724;2023-04-19T09:50:34;6.33;;;5.83;;
34928;SDS011;21133;48.048;7.724;2023-04-19T09:53:00;5.13;;;4.73;;
34928;SDS011;21133;48.048;7.724;2023-04-19T09:55:27;5.17;;;4.97;;
34928;SDS011;21133;48.048;7.724;2023-04-19T09:57:53;5.13;;;4.93;;
34928;SDS011;21133;48.048;7.724;2023-04-19T10:00:19;4.70;;;4.50;;
34928;SDS011;21133;48.048;7.724;2023-04-19T10:02:45;3.83;;;3.53;;
34928;SDS011;21133;48.048;7.724;2023-04-19T10:05:18;4.67;;;4.47;;
34928;SDS011;21133;48.048;7.724;2023-04-19T10:07:45;5.03;;;4.40;;
34928;SDS011;21133;48.048;7.724;2023-04-19T10:10:11;3.80;;;3.70;;
34928;SDS011;21133;48.048;7.724;2023-04-19T10:12:37;5.07;;;4.67;;
34928;SDS011;21133;48.048;7.724;2023-04-19T10:15:04;4.27;;;4.00;;
34928;SDS011;21133;48.048;7.724;2023-04-19T10:17:31;6.83;;;4.47;;
34928;SDS011;21133;48.048;7.724;2023-04-19T10:19:58;4.03;;;3.83;;
34928;SDS011;21133;48.048;7.724;2023-04-19T10:22:26;4.43;;;4.23;;
34928;SDS011;21133;48.048;7.724;2023-04-19T10:27:35;4.77;;;4.37;;
34928;SDS011;21133;48.048;7.724;2023-04-19T10:30:01;8.20;;;7.50;;
34928;SDS011;21133;48.048;7.724;2023-04-19T10:32:38;9.80;;;9.00;;
34928;SDS011;21133;48.048;7.724;2023-04-19T10:37:33;9.83;;;7.77;;
34928;SDS011;21133;48.048;7.724;2023-04-19T10:39:59;9.33;;;8.40;;
34928;SDS011;21133;48.048;7.724;2023-04-19T10:42:59;10.67;;;8.63;;
34928;SDS011;21133;48.048;7.724;2023-04-19T10:47:56;6.80;;;6.20;;
34928;SDS011;21133;48.048;7.724;2023-04-19T10:50:22;8.93;;;8.13;;
34928;SDS011;21133;48.048;7.724;2023-04-19T10:52:48;9.03;;;8.23;;
34928;SDS011;21133;48.048;7.724;2023-04-19T10:55:14;9.27;;;8.47;;
34928;SDS011;21133;48.048;7.724;2023-04-19T11:00:25;11.60;;;8.43;;
34928;SDS011;21133;48.048;7.724;2023-04-19T11:02:55;10.47;;;7.70;;
34928;SDS011;21133;48.048;7.724;2023-04-19T11:05:21;7.93;;;6.97;;
34928;SDS011;21133;48.048;7.724;2023-04-19T11:07:47;9.30;;;8.40;;
34928;SDS011;21133;48.048;7.724;2023-04-19T11:10:14;8.40;;;7.67;;
34928;SDS011;21133;48.048;7.724;2023-04-19T11:12:52;8.73;;;7.97;;
34928;SDS011;21133;48.048;7.724;2023-04-19T11:15:18;7.83;;;7.13;;
34928;SDS011;21133;48.048;7.724;2023-04-19T11:17:48;8.27;;;7.57;;
34928;SDS011;21133;48.048;7.724;2023-04-19T11:20:15;11.00;;;8.60;;
34928;SDS011;21133;48.048;7.724;2023-04-19T11:22:45;11.07;;;8.40;;
34928;SDS011;21133;48.048;7.724;2023-04-19T11:27:40;9.97;;;9.03;;
34928;SDS011;21133;48.048;7.724;2023-04-19T11:30:08;7.33;;;6.83;;
34928;SDS011;21133;48.048;7.724;2023-04-19T11:32:35;14.13;;;8.53;;
34928;SDS011;21133;48.048;7.724;2023-04-19T11:35:05;8.80;;;7.90;;
34928;SDS011;21133;48.048;7.724;2023-04-19T11:37:32;12.40;;;9.97;;
34928;SDS011;21133;48.048;7.724;2023-04-19T11:39:58;11.93;;;8.10;;
34928;SDS011;21133;48.048;7.724;2023-04-19T11:42:24;11.60;;;9.70;;
34928;SDS011;21133;48.048;7.724;2023-04-19T11:44:50;8.27;;;7.57;;
34928;SDS011;21133;48.048;7.724;2023-04-19T11:47:16;9.40;;;8.43;;
34928;SDS011;21133;48.048;7.724;2023-04-19T11:49:43;11.80;;;8.43;;
34928;SDS011;21133;48.048;7.724;2023-04-19T11:52:10;8.90;;;8.13;;
34928;SDS011;21133;48.048;7.724;2023-04-19T11:54:36;8.10;;;7.40;;
34928;SDS011;21133;48.048;7.724;2023-04-19T11:57:03;13.73;;;7.63;;
34928;SDS011;21133;48.048;7.724;2023-04-19T11:59:29;9.47;;;8.60;;
34928;SDS011;21133;48.048;7.724;2023-04-19T12:02:03;10.17;;;9.10;;
34928;SDS011;21133;48.048;7.724;2023-04-19T12:04:29;9.27;;;8.20;;
34928;SDS011;21133;48.048;7.724;2023-04-19T12:06:56;8.63;;;7.90;;
34928;SDS011;21133;48.048;7.724;2023-04-19T12:09:23;8.13;;;7.53;;
34928;SDS011;21133;48.048;7.724;2023-04-19T12:11:49;12.33;;;8.30;;
34928;SDS011;21133;48.048;7.724;2023-04-19T12:14:16;10.30;;;8.83;;
34928;SDS011;21133;48.048;7.724;2023-04-19T12:16:43;6.60;;;6.10;;
34928;SDS011;21133;48.048;7.724;2023-04-19T12:19:18;10.10;;;8.20;;
34928;SDS011;21133;48.048;7.724;2023-04-19T12:21:44;5.53;;;5.17;;
34928;SDS011;21133;48.048;7.724;2023-04-19T12:24:11;9.30;;;8.40;;
34928;SDS011;21133;48.048;7.724;2023-04-19T12:26:41;10.70;;;7.83;;
34928;SDS011;21133;48.048;7.724;2023-04-19T12:29:17;8.43;;;7.70;;
34928;SDS011;21133;48.048;7.724;2023-04-19T12:31:43;9.77;;;8.60;;
34928;SDS011;21133;48.048;7.724;2023-04-19T12:34:09;9.33;;;8.43;;
34928;SDS011;21133;48.048;7.724;2023-04-19T12:36:35;7.93;;;7.00;;
34928;SDS011;21133;48.048;7.724;2023-04-19T12:39:01;8.70;;;7.93;;
34928;SDS011;21133;48.048;7.724;2023-04-19T12:41:27;8.67;;;8.00;;
34928;SDS011;21133;48.048;7.724;2023-04-19T12:43:53;7.97;;;7.27;;
34928;SDS011;21133;48.048;7.724;2023-04-19T12:46:19;9.07;;;7.90;;
34928;SDS011;21133;48.048;7.724;2023-04-19T12:48:45;8.60;;;7.70;;
34928;SDS011;21133;48.048;7.724;2023-04-19T12:51:11;6.90;;;6.33;;
34928;SDS011;21133;48.048;7.724;2023-04-19T12:53:37;7.03;;;6.63;;
34928;SDS011;21133;48.048;7.724;2023-04-19T12:56:03;7.60;;;6.27;;
34928;SDS011;21133;48.048;7.724;2023-04-19T12:58:30;13.23;;;6.87;;
34928;SDS011;21133;48.048;7.724;2023-04-19T13:00:56;10.90;;;8.60;;
34928;SDS011;21133;48.048;7.724;2023-04-19T13:03:22;7.13;;;6.63;;
34928;SDS011;21133;48.048;7.724;2023-04-19T13:05:48;7.97;;;6.87;;
34928;SDS011;21133;48.048;7.724;2023-04-19T13:08:13;7.20;;;6.67;;
34928;SDS011;21133;48.048;7.724;2023-04-19T13:10:40;22.87;;;8.10;;
34928;SDS011;21133;48.048;7.724;2023-04-19T13:13:06;22.40;;;7.67;;
34928;SDS011;21133;48.048;7.724;2023-04-19T13:15:32;8.53;;;7.70;;
34928;SDS011;21133;48.048;7.724;2023-04-19T13:17:58;7.83;;;7.27;;
34928;SDS011;21133;48.048;7.724;2023-04-19T13:20:25;8.90;;;5.63;;
34928;SDS011;21133;48.048;7.724;2023-04-19T13:22:50;7.87;;;6.83;;
34928;SDS011;21133;48.048;7.724;2023-04-19T13:25:16;7.73;;;7.07;;
34928;SDS011;21133;48.048;7.724;2023-04-19T13:27:42;26.23;;;8.77;;
34928;SDS011;21133;48.048;7.724;2023-04-19T13:30:10;7.17;;;6.00;;
34928;SDS011;21133;48.048;7.724;2023-04-19T13:32:36;7.67;;;7.07;;
34928;SDS011;21133;48.048;7.724;2023-04-19T13:35:02;7.70;;;7.00;;
34928;SDS011;21133;48.048;7.724;2023-04-19T13:37:28;13.00;;;6.10;;
34928;SDS011;21133;48.048;7.724;2023-04-19T13:39:54;7.40;;;6.87;;
34928;SDS011;21133;48.048;7.724;2023-04-19T13:42:20;9.10;;;5.00;;
34928;SDS011;21133;48.048;7.724;2023-04-19T13:44:47;9.50;;;7.33;;
34928;SDS011;21133;48.048;7.724;2023-04-19T13:47:13;6.60;;;6.07;;
34928;SDS011;21133;48.048;7.724;2023-04-19T13:49:39;7.77;;;6.97;;
34928;SDS011;21133;48.048;7.724;2023-04-19T13:52:05;6.23;;;5.83;;
34928;SDS011;21133;48.048;7.724;2023-04-19T13:54:31;6.83;;;6.33;;
34928;SDS011;21133;48.048;7.724;2023-04-19T13:56:57;7.70;;;6.90;;
34928;SDS011;21133;48.048;7.724;2023-04-19T13:59:23;5.90;;;5.43;;
34928;SDS011;21133;48.048;7.724;2023-04-19T14:01:50;6.83;;;6.17;;
34928;SDS011;21133;48.048;7.724;2023-04-19T14:04:18;6.30;;;5.80;;
34928;SDS011;21133;48.048;7.724;2023-04-19T14:06:45;7.00;;;6.50;;
34928;SDS011;21133;48.048;7.724;2023-04-19T14:09:11;5.67;;;5.30;;
34928;SDS011;21133;48.048;7.724;2023-04-19T14:11:37;5.50;;;5.10;;
34928;SDS011;21133;48.048;7.724;2023-04-19T14:14:03;5.60;;;5.20;;
34928;SDS011;21133;48.048;7.724;2023-04-19T14:16:29;7.10;;;6.53;;
34928;SDS011;21133;48.048;7.724;2023-04-19T14:18:55;5.40;;;5.00;;
34928;SDS011;21133;48.048;7.724;2023-04-19T14:21:21;6.03;;;5.73;;
34928;SDS011;21133;48.048;7.724;2023-04-19T14:23:47;6.97;;;5.70;;
34928;SDS011;21133;48.048;7.724;2023-04-19T14:26:13;7.10;;;6.40;;
34928;SDS011;21133;48.048;7.724;2023-04-19T14:28:39;6.97;;;6.47;;
34928;SDS011;21133;48.048;7.724;2023-04-19T14:31:05;8.10;;;6.63;;
34928;SDS011;21133;48.048;7.724;2023-04-19T14:33:31;5.33;;;5.13;;
34928;SDS011;21133;48.048;7.724;2023-04-19T14:35:57;5.97;;;5.43;;
34928;SDS011;21133;48.048;7.724;2023-04-19T14:38:23;6.87;;;6.27;;
34928;SDS011;21133;48.048;7.724;2023-04-19T14:40:52;7.07;;;6.60;;
34928;SDS011;21133;48.048;7.724;2023-04-19T14:43:18;5.50;;;5.20;;
34928;SDS011;21133;48.048;7.724;2023-04-19T14:45:46;6.53;;;6.03;;
34928;SDS011;21133;48.048;7.724;2023-04-19T14:48:12;4.90;;;4.60;;
34928;SDS011;21133;48.048;7.724;2023-04-19T14:50:38;8.13;;;5.20;;
34928;SDS011;21133;48.048;7.724;2023-04-19T14:53:04;5.00;;;4.73;;
34928;SDS011;21133;48.048;7.724;2023-04-19T14:55:30;6.30;;;5.80;;
34928;SDS011;21133;48.048;7.724;2023-04-19T14:57:56;6.30;;;5.80;;
34928;SDS011;21133;48.048;7.724;2023-04-19T15:00:22;6.80;;;5.90;;
34928;SDS011;21133;48.048;7.724;2023-04-19T15:02:48;6.83;;;5.80;;